EGPF

Glasgow International Airport

Glasgow, United Kingdom
METAR EGPF 191450Z AUTO 22009KT 9000 -RA FEW029/// //////TCU 03/01 Q0998
Observed Flight Rules
Jan-19 @ 14:50 UTC (43 minutes ago) Visual Flight Rules
Wind Visibility Clouds Conditions
220° at 9 knots 8,996 meters
  • Few at 2,900' AGL
  • Light Rain
Temperatures Readings
Current 3°C / 37°F
Dewpoint 1°C / 34°F
Humidity 87%
Altimeter 29.47" Hg
Pressure 998 hPa
Elevation 8
METAR EGPF 191450Z AUTO 22009KT 9000 -RA FEW029/// //////TCU 03/01 Q0998
Observed Flight Rules
Jan-19 @ 14:50 UTC
(43 minutes ago)
VFR
Wind Visibility
220° at 9 knots 8,996 meters
Clouds
  • Few at 2,900' AGL
Conditions
  • Light Rain
Temperature Dewpoint
3°C / 37°F 1°C / 34°F
Humidity Altimeter Pressure
87% 29.47" Hg 998 hPa